Strona główna
METAR-TAF:

METAR-TAF

Lotnisko :

Farnborough, Anglia

Szerokość geograficzna: 51-17N, Długość geograficzna: 000-46W, wysokość: 65 m

Aktualna obserwacja pogody

Raport powstał 33 minut temu, godzina 11:20 UTC
Wiatr 10 kt od zachód, zmienny między południowy zachód i północny zachód
Temperatura 20°C
Wilgotność 64%
Ciśnienie 1010 hPa
Widzialność 10 km lub więcej
Mało chmury na wysokości 2500 ft
Rozproszone chmury na wysokości 3000 ft

METAR: EGLF 181120Z 26010KT 230V310 9999 FEW025 SCT030 20/13 Q1010

czas: 12:53 (11:53 UTC)

Prognoza

Raport powstał 59 minut temu, godzina 10:54 UTC
Prognoza ważna od 18 godzina 12 UTC do 18 godzina 21 UTC
Wiatr 10 kt od zachód
Widzialność 10 km lub więcej
Mało chmury na wysokości 3500 ft
Prawdopodobieństwo 30% :
Przejściowo
od 18 godzina 12 UTC do 18 godzina 14 UTC
Widzialność: 7000 m
przelotny opad deszczu

TAF: EGLF 181054Z 1812/1821 27010KT 9999 FEW035 PROB30 TEMPO 1812/1814 7000 SHRA

Obserwacja i prognoza pogody dla ponad 4000 lotnisk (raport METAR i TAF).

Dostępne stacje oznaczono żółtymi i czerwonymi punktami na mapie.

Najedź kursorem aby zobaczyć nazwę stacji.

Kliknij aby zobaczyć obserwacje i prognozy pogody.

Aby zmienić mapę: kliknij na zielony przycisk z czarnym krzyżykiem, aby powiększyć; na zielony przycisk z myślnikiem, aby pomniejszyć; na zielone strzałki, aby przejść do map sąsiednich.


METAR-TAF: